Main page
METAR-TAF:

METAR-TAF

Airports :

Brussels Airport. Zaventem

Brussels, Belgium

latitude: 50-54N, longitude: 004-32E, elevation: 55 m

Current weather observation

The report was made 27 minutes ago, at 22:50 UTC
Wind 5 kt from the East
Temperature 16°C
Humidity 48%
Pressure 1002 hPa
Visibility 10 km or more
no clouds below 1500 m and no cumulonimbus

METAR: EBBR 222250Z 10005KT CAVOK 16/05 Q1002 NOSIG

Time: 01:17 (23:17 UTC)

Forecast

The report was made 6 hours and 7 minutes ago, at 17:10 UTC
Forecast valid from 22 at 18 UTC to 23 at 24 UTC
Wind 7 kt from the East
Visibility 10 km or more
no clouds below 1500 m and no cumulonimbus

TAF: EBBR 221710Z 2218/2324 09007KT CAVOK

Weather observations and forecasts of more than 4000 airports (METAR and TAF reports).

The available stations are represented by yellow and red dots on the map.

Hover mouse over dot to see the name of the station.

Then click to see weather observations and forecasts.

To change the map : click on the green buttons with a black cross to zoom in, on the green button with a dash to zoom out, or on the green arrows for adjacent maps.


METAR-TAF: